createdAt,value
2019-03-09T00:01:31.076Z,6.43
2019-03-09T00:04:00.356Z,7.23
2019-03-09T00:06:29.778Z,8.57
2019-03-09T00:08:58.883Z,6.40
2019-03-09T00:11:28.115Z,4.37
2019-03-09T00:13:57.351Z,10.95
2019-03-09T00:16:26.598Z,4.60
2019-03-09T00:18:55.858Z,3.53
2019-03-09T00:21:25.049Z,17.40
2019-03-09T00:24:12.313Z,4.00
2019-03-09T00:27:03.587Z,8.70
2019-03-09T00:29:43.836Z,5.92
2019-03-09T00:32:17.163Z,4.87
2019-03-09T00:34:50.919Z,9.80
2019-03-09T00:37:20.607Z,3.50
2019-03-09T00:39:50.104Z,3.27
2019-03-09T00:42:20.623Z,7.07
2019-03-09T00:44:50.693Z,2.17
2019-03-09T00:47:20.679Z,5.73
2019-03-09T00:49:49.899Z,9.77
2019-03-09T00:52:20.675Z,4.67
2019-03-09T00:54:50.883Z,5.80
2019-03-09T00:57:20.347Z,4.40
2019-03-09T00:59:55.572Z,7.40
2019-03-09T01:02:25.372Z,5.17
2019-03-09T01:04:54.804Z,6.80
2019-03-09T01:07:24.364Z,5.10
2019-03-09T01:09:53.642Z,2.53
2019-03-09T01:12:22.847Z,2.77
2019-03-09T01:14:52.056Z,7.23
2019-03-09T01:17:21.407Z,6.40
2019-03-09T01:19:50.636Z,5.27
2019-03-09T01:22:19.743Z,4.40
2019-03-09T01:24:48.995Z,9.75
2019-03-09T01:27:18.170Z,4.00
2019-03-09T01:29:47.332Z,9.97
2019-03-09T01:32:16.836Z,4.00
2019-03-09T01:34:46.007Z,6.12
2019-03-09T01:37:15.465Z,3.97
2019-03-09T01:39:44.978Z,2.43
2019-03-09T01:42:14.187Z,6.13
2019-03-09T01:44:43.906Z,7.63
2019-03-09T01:47:13.091Z,3.20
2019-03-09T01:49:43.175Z,7.20
2019-03-09T01:52:12.335Z,4.80
2019-03-09T01:54:41.582Z,3.90
2019-03-09T01:57:10.757Z,6.80
2019-03-09T01:59:39.957Z,3.27
2019-03-09T02:02:09.199Z,4.05
2019-03-09T02:04:38.907Z,4.30
2019-03-09T02:07:08.492Z,5.03
2019-03-09T02:09:37.702Z,4.13
2019-03-09T02:12:06.839Z,4.47
2019-03-09T02:14:36.459Z,4.37
2019-03-09T02:17:05.802Z,4.03
2019-03-09T02:19:35.060Z,4.50
2019-03-09T02:22:04.283Z,4.17
2019-03-09T02:24:33.430Z,3.77
2019-03-09T02:27:02.676Z,2.90
2019-03-09T02:29:31.834Z,2.37
2019-03-09T02:32:01.267Z,3.80
2019-03-09T02:34:30.596Z,3.10
2019-03-09T02:36:59.768Z,7.43
2019-03-09T02:39:47.957Z,2.17
2019-03-09T02:42:17.261Z,3.47
2019-03-09T02:44:46.366Z,6.70
2019-03-09T02:47:16.296Z,6.07
2019-03-09T02:49:45.833Z,5.35
2019-03-09T02:52:15.559Z,3.53
2019-03-09T02:54:45.079Z,4.53
2019-03-09T02:57:14.360Z,4.13
2019-03-09T02:59:43.833Z,4.20
2019-03-09T03:02:21.089Z,4.83
2019-03-09T03:04:50.673Z,5.30
2019-03-09T03:07:19.851Z,7.90
2019-03-09T03:09:49.464Z,7.17
2019-03-09T03:12:18.170Z,3.73
2019-03-09T03:14:47.939Z,5.37
2019-03-09T03:17:17.117Z,4.70
2019-03-09T03:19:46.258Z,3.25
2019-03-09T03:22:15.473Z,4.27
2019-03-09T03:24:44.997Z,5.93
2019-03-09T03:27:14.196Z,3.42
2019-03-09T03:29:43.431Z,2.70
2019-03-09T03:32:14.660Z,4.50
2019-03-09T03:34:43.979Z,5.20
2019-03-09T03:37:13.123Z,9.63
2019-03-09T03:39:42.269Z,9.07
2019-03-09T03:42:11.410Z,6.00
2019-03-09T03:44:46.192Z,4.40
2019-03-09T03:47:16.571Z,4.53
2019-03-09T03:49:46.123Z,10.13
2019-03-09T03:52:15.302Z,9.27
2019-03-09T03:54:44.463Z,10.20
2019-03-09T03:57:13.716Z,4.43
2019-03-09T03:59:43.034Z,5.63
2019-03-09T04:02:12.183Z,3.27
2019-03-09T04:04:41.377Z,4.97
2019-03-09T04:07:10.949Z,10.60
2019-03-09T04:09:40.322Z,6.70
2019-03-09T04:12:09.488Z,9.33
2019-03-09T04:14:38.691Z,12.83
2019-03-09T04:17:08.069Z,3.98
2019-03-09T04:19:37.607Z,5.30
2019-03-09T04:22:06.739Z,5.65
2019-03-09T04:24:38.709Z,5.67
2019-03-09T04:27:07.892Z,3.70
2019-03-09T04:29:37.092Z,5.83
2019-03-09T04:32:06.280Z,6.63
2019-03-09T04:34:37.742Z,5.33
2019-03-09T04:37:07.027Z,4.63
2019-03-09T04:39:36.784Z,5.93
2019-03-09T04:42:06.103Z,2.50
2019-03-09T04:44:35.295Z,3.33
2019-03-09T04:47:04.559Z,3.53
2019-03-09T04:49:34.893Z,5.53
2019-03-09T04:52:04.205Z,2.80
2019-03-09T04:54:33.692Z,4.93
2019-03-09T04:57:02.854Z,3.00
2019-03-09T04:59:32.013Z,6.20
2019-03-09T05:02:01.177Z,4.40
2019-03-09T05:04:50.743Z,3.12
2019-03-09T05:07:52.248Z,3.80
2019-03-09T05:10:28.123Z,2.37
2019-03-09T05:13:00.767Z,3.42
2019-03-09T05:15:30.258Z,2.55
2019-03-09T05:17:59.450Z,3.25
2019-03-09T05:20:29.003Z,2.58
2019-03-09T05:22:58.155Z,2.27
2019-03-09T05:25:27.530Z,2.67
2019-03-09T05:27:57.007Z,6.53
2019-03-09T05:30:41.243Z,2.52
2019-03-09T05:33:10.824Z,3.07
2019-03-09T05:35:39.985Z,2.47
2019-03-09T05:38:09.234Z,2.50
2019-03-09T05:40:38.377Z,7.20
2019-03-09T05:43:07.509Z,5.17
2019-03-09T05:45:37.110Z,2.70
2019-03-09T05:48:06.336Z,2.17
2019-03-09T05:50:35.836Z,2.70
2019-03-09T05:53:24.145Z,2.50
2019-03-09T05:55:53.655Z,1.97
2019-03-09T05:58:22.863Z,2.13
2019-03-09T06:00:52.979Z,2.98
2019-03-09T06:03:22.284Z,2.37
2019-03-09T06:05:57.740Z,2.07
2019-03-09T06:08:27.359Z,2.55
2019-03-09T06:10:56.564Z,3.47
2019-03-09T06:13:25.791Z,2.23
2019-03-09T06:15:55.379Z,2.03
2019-03-09T06:18:24.580Z,2.60
2019-03-09T06:20:54.146Z,2.33
2019-03-09T06:23:23.303Z,2.33
2019-03-09T06:25:53.471Z,2.37
2019-03-09T06:28:22.945Z,2.00
2019-03-09T06:30:52.769Z,2.05
2019-03-09T06:33:32.791Z,3.27
2019-03-09T06:36:41.896Z,1.70
2019-03-09T06:39:19.787Z,1.65
2019-03-09T06:42:52.466Z,2.90
2019-03-09T06:45:21.735Z,1.93
2019-03-09T06:47:50.941Z,5.00
2019-03-09T06:50:21.605Z,3.73
2019-03-09T06:52:51.064Z,1.80
2019-03-09T06:55:20.586Z,3.10
2019-03-09T06:57:51.998Z,1.93
2019-03-09T07:00:37.804Z,2.13
2019-03-09T07:03:09.085Z,1.75
2019-03-09T07:05:38.274Z,1.43
2019-03-09T07:08:09.108Z,2.13
2019-03-09T07:10:40.152Z,1.97
2019-03-09T07:13:10.097Z,1.70
2019-03-09T07:15:41.470Z,1.60
2019-03-09T07:18:29.809Z,1.63
2019-03-09T07:20:58.946Z,1.75
2019-03-09T07:23:28.250Z,1.30
2019-03-09T07:25:57.540Z,1.72
2019-03-09T07:28:27.007Z,1.93
2019-03-09T07:30:57.116Z,1.30
2019-03-09T07:33:26.257Z,1.67
2019-03-09T07:35:55.454Z,1.40
2019-03-09T07:38:24.594Z,1.20
2019-03-09T07:40:54.157Z,1.50
2019-03-09T07:43:23.422Z,1.63
2019-03-09T07:45:52.581Z,1.37
2019-03-09T07:48:21.802Z,1.50
2019-03-09T07:50:51.052Z,1.75
2019-03-09T07:53:20.443Z,1.33
2019-03-09T07:55:49.930Z,1.93
2019-03-09T07:58:19.064Z,2.17
2019-03-09T08:00:48.296Z,1.40
2019-03-09T08:03:17.481Z,1.60
2019-03-09T08:05:46.803Z,1.20
2019-03-09T08:08:16.001Z,1.30
2019-03-09T08:10:45.541Z,1.40
2019-03-09T08:13:14.792Z,1.60
2019-03-09T08:15:44.100Z,5.50
2019-03-09T08:18:13.392Z,1.30
2019-03-09T08:20:42.613Z,1.40
2019-03-09T08:23:11.827Z,2.20
2019-03-09T08:25:41.434Z,1.67
2019-03-09T08:28:11.336Z,1.77
2019-03-09T08:30:40.451Z,1.40
2019-03-09T08:33:10.031Z,1.63
2019-03-09T08:35:39.257Z,1.20
2019-03-09T08:38:10.385Z,8.00
2019-03-09T08:40:39.546Z,1.40
2019-03-09T08:43:09.094Z,5.93
2019-03-09T08:45:38.663Z,3.83
2019-03-09T08:48:08.143Z,2.50
2019-03-09T08:50:37.319Z,1.70
2019-03-09T08:53:06.498Z,2.10
2019-03-09T08:55:36.128Z,2.00
2019-03-09T08:58:05.976Z,1.82
2019-03-09T09:00:35.382Z,2.05
2019-03-09T09:03:04.674Z,2.10
2019-03-09T09:05:33.918Z,1.72
2019-03-09T09:08:04.060Z,1.90
2019-03-09T09:10:33.592Z,1.70
2019-03-09T09:13:02.713Z,2.00
2019-03-09T09:15:31.918Z,1.87
2019-03-09T09:18:01.387Z,1.82
2019-03-09T09:20:31.181Z,2.20
2019-03-09T09:23:00.326Z,1.97
2019-03-09T09:25:29.907Z,1.77
2019-03-09T09:27:59.738Z,2.30
2019-03-09T09:30:29.363Z,1.87
2019-03-09T09:32:58.636Z,1.90
2019-03-09T09:35:27.997Z,2.60
2019-03-09T09:37:57.618Z,2.85
2019-03-09T09:40:27.244Z,2.63
2019-03-09T09:42:56.524Z,2.23
2019-03-09T09:45:26.026Z,2.53
2019-03-09T09:47:55.337Z,1.97
2019-03-09T09:50:24.571Z,1.97
2019-03-09T09:52:53.775Z,2.80
2019-03-09T09:55:23.108Z,2.70
2019-03-09T09:57:52.442Z,2.17
2019-03-09T10:00:23.853Z,1.80
2019-03-09T10:02:53.147Z,2.63
2019-03-09T10:05:22.622Z,2.00
2019-03-09T10:07:51.924Z,2.60
2019-03-09T10:10:21.411Z,2.30
2019-03-09T10:12:50.644Z,2.40
2019-03-09T10:15:24.948Z,2.60
2019-03-09T10:17:54.174Z,2.60
2019-03-09T10:20:23.832Z,2.37
2019-03-09T10:23:03.059Z,2.90
2019-03-09T10:25:24.407Z,2.23
2019-03-09T10:27:54.710Z,2.27
2019-03-09T10:30:24.289Z,2.77
2019-03-09T10:32:53.966Z,2.58
2019-03-09T10:35:23.245Z,3.58
2019-03-09T10:37:52.518Z,2.40
2019-03-09T10:40:21.757Z,2.07
2019-03-09T10:42:51.186Z,5.60
2019-03-09T10:45:20.989Z,2.55
2019-03-09T10:47:51.563Z,1.70
2019-03-09T10:50:20.816Z,2.53
2019-03-09T10:52:50.286Z,4.20
2019-03-09T10:55:20.674Z,1.40
2019-03-09T10:57:49.908Z,1.47
2019-03-09T11:00:24.668Z,1.90
2019-03-09T11:03:00.800Z,4.90
2019-03-09T11:05:30.595Z,2.00
2019-03-09T11:08:00.679Z,2.15
2019-03-09T11:10:30.207Z,1.87
2019-03-09T11:12:59.430Z,2.37
2019-03-09T11:15:28.759Z,1.83
2019-03-09T11:17:58.255Z,2.17
2019-03-09T11:20:27.604Z,1.90
2019-03-09T11:22:56.827Z,3.47
2019-03-09T11:25:26.162Z,3.93
2019-03-09T11:27:57.291Z,1.80
2019-03-09T11:30:27.060Z,2.20
2019-03-09T11:32:56.324Z,3.73
2019-03-09T11:35:27.097Z,4.23
2019-03-09T11:37:58.376Z,2.27
2019-03-09T11:40:29.896Z,2.50
2019-03-09T11:42:59.134Z,2.05
2019-03-09T11:45:29.474Z,3.23
2019-03-09T11:47:58.733Z,3.40
2019-03-09T11:50:28.315Z,2.50
2019-03-09T11:52:57.517Z,3.53
2019-03-09T11:55:27.073Z,4.20
2019-03-09T11:57:56.304Z,4.17
2019-03-09T12:00:27.940Z,3.03
2019-03-09T12:02:57.476Z,3.70
2019-03-09T12:05:27.142Z,3.47
2019-03-09T12:07:57.083Z,3.60
2019-03-09T12:10:26.332Z,3.20
2019-03-09T12:12:56.241Z,3.90
2019-03-09T12:15:25.535Z,2.63
2019-03-09T12:17:55.086Z,3.07
2019-03-09T12:20:26.511Z,3.10
2019-03-09T12:23:01.088Z,3.03
2019-03-09T12:25:27.515Z,2.97
2019-03-09T12:27:56.778Z,2.63
2019-03-09T12:30:26.024Z,3.02
2019-03-09T12:32:55.309Z,3.33
2019-03-09T12:35:24.693Z,2.93
2019-03-09T12:37:54.979Z,3.00
2019-03-09T12:40:24.708Z,4.03
2019-03-09T12:42:53.854Z,2.47
2019-03-09T12:45:23.023Z,3.30
2019-03-09T12:47:52.377Z,2.67
2019-03-09T12:50:22.012Z,2.73
2019-03-09T12:52:52.223Z,3.10
2019-03-09T12:55:22.413Z,2.93
2019-03-09T12:57:51.939Z,2.30
2019-03-09T13:00:21.198Z,2.90
2019-03-09T13:02:50.408Z,2.70
2019-03-09T13:05:20.455Z,2.73
2019-03-09T13:07:50.054Z,2.43
2019-03-09T13:10:19.323Z,2.17
2019-03-09T13:12:49.053Z,2.20
2019-03-09T13:15:18.386Z,2.27
2019-03-09T13:17:47.738Z,1.80
2019-03-09T13:20:16.982Z,5.10
2019-03-09T13:22:46.315Z,35.30
2019-03-09T13:25:15.976Z,2.90
2019-03-09T13:27:46.735Z,3.27
2019-03-09T13:30:18.446Z,2.40
2019-03-09T13:32:47.621Z,5.57
2019-03-09T13:35:17.755Z,6.33
2019-03-09T13:37:47.097Z,3.20
2019-03-09T13:40:17.134Z,3.30
2019-03-09T13:42:47.507Z,3.20
2019-03-09T13:45:18.249Z,3.20
2019-03-09T13:47:48.789Z,3.70
2019-03-09T13:50:18.324Z,2.87
2019-03-09T13:52:47.885Z,2.90
2019-03-09T13:55:17.106Z,3.17
2019-03-09T13:57:46.723Z,2.87
2019-03-09T14:00:16.082Z,3.33
2019-03-09T14:02:45.334Z,5.25
2019-03-09T14:05:15.558Z,2.52
2019-03-09T14:07:45.225Z,2.70
2019-03-09T14:10:14.722Z,2.50
2019-03-09T14:12:44.673Z,2.37
2019-03-09T14:15:14.623Z,2.53
2019-03-09T14:17:45.849Z,2.83
2019-03-09T14:20:15.006Z,2.30
2019-03-09T14:22:44.657Z,1.97
2019-03-09T14:25:15.321Z,1.63
2019-03-09T14:27:47.025Z,1.20
2019-03-09T14:30:16.558Z,1.10
2019-03-09T14:32:46.407Z,1.83
2019-03-09T14:35:15.663Z,1.30
2019-03-09T14:37:45.250Z,1.43
2019-03-09T14:40:14.590Z,1.97
2019-03-09T14:42:44.720Z,1.40
2019-03-09T14:45:15.495Z,2.13
2019-03-09T14:47:45.241Z,4.17
2019-03-09T14:50:14.927Z,1.93
2019-03-09T14:52:44.224Z,1.15
2019-03-09T14:55:13.566Z,1.45
2019-03-09T14:57:43.329Z,1.10
2019-03-09T15:00:15.859Z,1.10
2019-03-09T15:02:48.509Z,1.10
2019-03-09T15:05:18.471Z,1.10
2019-03-09T15:07:48.584Z,1.17
2019-03-09T15:10:18.125Z,1.30
2019-03-09T15:12:48.572Z,1.63
2019-03-09T15:15:18.315Z,2.35
2019-03-09T15:17:53.734Z,1.27
2019-03-09T15:20:23.704Z,1.15
2019-03-09T15:22:53.388Z,1.60
2019-03-09T15:25:28.247Z,1.70
2019-03-09T15:27:58.493Z,1.50
2019-03-09T15:30:27.969Z,1.60
2019-03-09T15:32:57.714Z,1.45
2019-03-09T15:35:28.311Z,2.43
2019-03-09T15:37:57.735Z,1.80
2019-03-09T15:40:27.472Z,2.37
2019-03-09T15:42:57.290Z,1.40
2019-03-09T15:45:26.938Z,3.70
2019-03-09T15:47:59.531Z,1.27
2019-03-09T15:50:29.070Z,2.23
2019-03-09T15:52:58.851Z,1.40
2019-03-09T15:55:31.354Z,1.50
2019-03-09T15:58:01.034Z,4.23
2019-03-09T16:00:30.922Z,1.70
2019-03-09T16:03:03.390Z,1.47
2019-03-09T16:05:36.640Z,1.30
2019-03-09T16:08:07.181Z,2.25
2019-03-09T16:10:36.870Z,1.53
2019-03-09T16:13:07.776Z,1.87
2019-03-09T16:15:40.313Z,1.40
2019-03-09T16:18:14.192Z,2.30
2019-03-09T16:20:45.104Z,3.17
2019-03-09T16:23:14.440Z,3.13
2019-03-09T16:25:44.911Z,4.20
2019-03-09T16:28:15.472Z,5.92
2019-03-09T16:30:44.352Z,6.03
2019-03-09T16:33:19.099Z,5.57
2019-03-09T16:35:50.965Z,2.12
2019-03-09T16:38:30.611Z,4.07
2019-03-09T16:40:54.818Z,2.03
2019-03-09T16:43:24.875Z,4.37
2019-03-09T16:45:58.222Z,7.70
2019-03-09T16:48:29.308Z,8.27
2019-03-09T16:50:59.275Z,3.90
2019-03-09T16:53:31.154Z,5.70
2019-03-09T16:56:01.153Z,5.37
2019-03-09T16:58:30.727Z,6.70
2019-03-09T17:01:00.754Z,7.33
2019-03-09T17:03:34.044Z,6.73
2019-03-09T17:06:04.047Z,3.33
2019-03-09T17:08:36.172Z,4.35
2019-03-09T17:11:08.829Z,7.43
2019-03-09T17:13:39.114Z,5.25
2019-03-09T17:16:14.432Z,8.60
2019-03-09T17:18:47.011Z,3.13
2019-03-09T17:21:16.635Z,4.80
2019-03-09T17:23:49.391Z,7.10
2019-03-09T17:26:19.128Z,2.47
2019-03-09T17:28:48.693Z,3.53
2019-03-09T17:31:18.350Z,13.20
2019-03-09T17:33:48.687Z,4.00
2019-03-09T17:36:18.578Z,6.97
2019-03-09T17:38:49.112Z,4.70
2019-03-09T17:41:19.010Z,5.77
2019-03-09T17:43:48.683Z,6.17
2019-03-09T17:46:18.987Z,3.80
2019-03-09T17:48:49.631Z,7.90
2019-03-09T17:51:20.111Z,7.77
2019-03-09T17:53:51.713Z,8.70
2019-03-09T17:56:21.385Z,8.47
2019-03-09T17:58:53.217Z,9.43
2019-03-09T18:01:23.009Z,4.50
2019-03-09T18:03:52.489Z,9.53
2019-03-09T18:06:24.007Z,4.60
2019-03-09T18:08:53.750Z,5.77
2019-03-09T18:11:23.280Z,5.60
2019-03-09T18:13:52.735Z,4.83
2019-03-09T18:16:22.285Z,10.10
2019-03-09T18:18:52.027Z,3.73
2019-03-09T18:21:21.591Z,11.90
2019-03-09T18:23:50.970Z,7.17
2019-03-09T18:26:21.791Z,3.23
2019-03-09T18:28:51.512Z,6.83
2019-03-09T18:31:21.076Z,6.70
2019-03-09T18:33:51.017Z,5.30
2019-03-09T18:36:20.796Z,11.03
2019-03-09T18:38:52.583Z,4.40
2019-03-09T18:41:22.822Z,6.40
2019-03-09T18:43:53.095Z,5.00
2019-03-09T18:46:22.789Z,10.23
2019-03-09T18:48:52.686Z,9.33
2019-03-09T18:51:24.221Z,8.90
2019-03-09T18:53:53.943Z,4.23
2019-03-09T18:56:23.682Z,3.42
2019-03-09T18:58:53.472Z,7.77
2019-03-09T19:01:22.930Z,4.63
2019-03-09T19:03:52.759Z,9.28
2019-03-09T19:06:25.622Z,3.77
2019-03-09T19:08:55.159Z,3.80
2019-03-09T19:11:27.563Z,5.73
2019-03-09T19:13:59.079Z,7.42
2019-03-09T19:16:29.050Z,5.63
2019-03-09T19:18:58.857Z,7.47
2019-03-09T19:21:28.334Z,6.97
2019-03-09T19:23:57.873Z,6.70
2019-03-09T19:26:27.325Z,7.62
2019-03-09T19:28:59.111Z,9.83
2019-03-09T19:31:29.015Z,6.37
2019-03-09T19:34:00.341Z,7.10
2019-03-09T19:36:31.706Z,7.70
2019-03-09T19:39:01.560Z,13.27
2019-03-09T19:41:46.441Z,10.33
2019-03-09T19:44:16.283Z,10.03
2019-03-09T19:46:45.464Z,5.83
2019-03-09T19:49:15.755Z,10.70
2019-03-09T19:51:47.666Z,13.65
2019-03-09T19:54:17.647Z,10.67
2019-03-09T19:56:52.139Z,12.17
2019-03-09T19:59:26.192Z,13.28
2019-03-09T20:01:56.023Z,9.90
2019-03-09T20:04:28.962Z,10.00
2019-03-09T20:06:58.585Z,13.93
2019-03-09T20:09:28.253Z,14.03
2019-03-09T20:11:58.372Z,6.83
2019-03-09T20:14:29.590Z,16.57
2019-03-09T20:16:59.466Z,9.63
2019-03-09T20:19:35.970Z,10.90
2019-03-09T20:22:06.090Z,9.87
2019-03-09T20:24:36.154Z,9.13
2019-03-09T20:27:08.984Z,8.35
2019-03-09T20:29:39.214Z,14.15
2019-03-09T20:32:10.734Z,9.30
2019-03-09T20:34:44.776Z,9.45
2019-03-09T20:37:16.487Z,8.27
2019-03-09T20:39:45.291Z,13.03
2019-03-09T20:42:14.920Z,11.73
2019-03-09T20:44:45.178Z,7.50
2019-03-09T20:47:14.888Z,14.53
2019-03-09T20:49:47.348Z,7.70
2019-03-09T20:52:16.773Z,12.27
2019-03-09T20:54:45.933Z,8.70
2019-03-09T20:57:15.503Z,10.73
2019-03-09T20:59:46.081Z,9.53
2019-03-09T21:02:15.864Z,7.37
2019-03-09T21:04:45.174Z,8.60
2019-03-09T21:07:14.884Z,7.87
2019-03-09T21:09:44.311Z,15.72
2019-03-09T21:12:13.627Z,10.13
2019-03-09T21:14:44.313Z,18.57
2019-03-09T21:17:16.000Z,9.63
2019-03-09T21:19:45.415Z,14.10
2019-03-09T21:22:14.785Z,10.13
2019-03-09T21:24:44.169Z,11.43
2019-03-09T21:27:13.455Z,17.80
2019-03-09T21:29:42.697Z,15.60
2019-03-09T21:32:12.087Z,13.77
2019-03-09T21:34:41.299Z,27.10
2019-03-09T21:37:10.826Z,15.50
2019-03-09T21:39:41.790Z,10.60
2019-03-09T21:42:11.238Z,15.77
2019-03-09T21:44:41.049Z,13.43
2019-03-09T21:47:11.645Z,19.30
2019-03-09T21:49:41.350Z,20.40
2019-03-09T21:52:11.378Z,14.60
2019-03-09T21:54:43.109Z,18.27
2019-03-09T21:57:19.914Z,9.83
2019-03-09T21:59:49.923Z,12.20
2019-03-09T22:02:19.565Z,11.30
2019-03-09T22:04:48.897Z,15.67
2019-03-09T22:07:18.413Z,8.65
2019-03-09T22:10:10.890Z,14.10
2019-03-09T22:12:40.446Z,18.02
2019-03-09T22:15:10.159Z,8.58
2019-03-09T22:17:39.769Z,9.37
2019-03-09T22:20:09.379Z,12.13
2019-03-09T22:22:38.861Z,17.77
2019-03-09T22:25:09.795Z,9.20
2019-03-09T22:27:39.626Z,8.00
2019-03-09T22:30:10.506Z,11.50
2019-03-09T22:32:39.802Z,8.10
2019-03-09T22:35:12.642Z,8.00
2019-03-09T22:37:41.902Z,14.00
2019-03-09T22:40:11.499Z,15.55
2019-03-09T22:42:41.036Z,13.93
2019-03-09T22:45:11.308Z,15.63
2019-03-09T22:47:40.715Z,10.75
2019-03-09T22:50:12.285Z,16.50
2019-03-09T22:52:41.588Z,8.60
2019-03-09T22:55:11.704Z,13.33
2019-03-09T22:57:41.220Z,12.20
2019-03-09T23:00:13.148Z,10.50
2019-03-09T23:02:44.692Z,8.00
2019-03-09T23:05:13.973Z,11.50
2019-03-09T23:07:44.002Z,15.50
2019-03-09T23:10:15.207Z,13.83
2019-03-09T23:12:44.715Z,11.87
2019-03-09T23:15:14.971Z,22.37
2019-03-09T23:17:45.422Z,13.75
2019-03-09T23:20:15.160Z,12.20
2019-03-09T23:22:44.392Z,14.40
2019-03-09T23:25:14.398Z,15.20
2019-03-09T23:27:44.274Z,12.23
2019-03-09T23:30:15.757Z,15.80
2019-03-09T23:32:45.174Z,15.37
2019-03-09T23:35:14.958Z,12.73
2019-03-09T23:37:44.734Z,17.90
2019-03-09T23:40:15.879Z,15.20
2019-03-09T23:42:45.563Z,15.00
2019-03-09T23:45:15.144Z,16.50
2019-03-09T23:47:44.531Z,13.43
2019-03-09T23:50:14.828Z,16.97
2019-03-09T23:52:44.471Z,11.13
2019-03-09T23:55:22.161Z,5.07
2019-03-09T23:57:45.804Z,8.17
